createdAt,value
2022-11-14T00:01:28.207Z,34.97
2022-11-14T00:03:56.325Z,36.90
2022-11-14T00:06:24.609Z,38.10
2022-11-14T00:08:54.218Z,35.00
2022-11-14T00:11:22.437Z,36.77
2022-11-14T00:13:50.542Z,35.17
2022-11-14T00:16:18.697Z,35.47
2022-11-14T00:18:46.790Z,35.00
2022-11-14T00:21:15.021Z,36.40
2022-11-14T00:23:43.263Z,37.87
2022-11-14T00:26:12.795Z,35.17
2022-11-14T00:28:41.046Z,36.83
2022-11-14T00:31:10.795Z,38.13
2022-11-14T00:33:40.149Z,33.17
2022-11-14T00:36:08.438Z,36.00
2022-11-14T00:38:36.578Z,35.47
2022-11-14T00:41:04.900Z,35.90
2022-11-14T00:43:34.528Z,38.57
2022-11-14T00:46:02.707Z,37.83
2022-11-14T00:48:31.415Z,37.67
2022-11-14T00:50:59.918Z,34.90
2022-11-14T00:53:28.067Z,39.87
2022-11-14T00:55:56.279Z,36.37
2022-11-14T00:58:24.505Z,36.83
2022-11-14T01:00:54.848Z,35.17
2022-11-14T01:03:22.946Z,36.33
2022-11-14T01:05:52.550Z,38.00
2022-11-14T01:08:21.486Z,38.27
2022-11-14T01:10:50.852Z,35.23
2022-11-14T01:13:19.927Z,37.47
2022-11-14T01:15:50.054Z,36.57
2022-11-14T01:18:22.404Z,38.93
2022-11-14T01:20:50.718Z,34.40
2022-11-14T01:23:18.987Z,36.33
2022-11-14T01:25:47.206Z,34.13
2022-11-14T01:28:17.266Z,34.80
2022-11-14T01:30:45.783Z,34.53
2022-11-14T01:33:13.907Z,39.90
2022-11-14T01:35:43.707Z,35.57
2022-11-14T01:38:14.899Z,37.93
2022-11-14T01:40:44.449Z,36.67
2022-11-14T01:43:26.546Z,38.47
2022-11-14T01:45:57.530Z,38.13
2022-11-14T01:48:28.775Z,37.20
2022-11-14T01:51:34.539Z,35.60
2022-11-14T01:54:05.753Z,33.70
2022-11-14T01:56:36.053Z,32.40
2022-11-14T01:59:06.881Z,38.93
2022-11-14T02:01:38.125Z,32.90
2022-11-14T02:04:08.870Z,35.50
2022-11-14T02:06:41.127Z,34.10
2022-11-14T02:09:11.353Z,34.27
2022-11-14T02:11:42.561Z,33.17
2022-11-14T02:14:11.135Z,33.87
2022-11-14T02:16:40.682Z,32.70
2022-11-14T02:19:09.344Z,32.17
2022-11-14T02:21:39.155Z,36.63
2022-11-14T02:24:11.302Z,31.60
2022-11-14T02:26:40.813Z,34.63
2022-11-14T02:29:11.082Z,38.57
2022-11-14T02:31:39.941Z,37.27
2022-11-14T02:34:08.182Z,35.17
2022-11-14T02:36:36.413Z,31.47
2022-11-14T02:39:06.125Z,32.87
2022-11-14T02:41:35.432Z,35.20
2022-11-14T02:44:03.734Z,31.87
2022-11-14T02:46:32.041Z,35.37
2022-11-14T02:49:00.263Z,33.33
2022-11-14T02:51:28.411Z,35.57
2022-11-14T02:53:56.491Z,36.37
2022-11-14T02:56:26.149Z,36.50
2022-11-14T02:58:54.270Z,35.17
2022-11-14T03:01:22.635Z,29.77
2022-11-14T03:03:50.842Z,31.67
2022-11-14T03:06:18.971Z,35.80
2022-11-14T03:08:47.091Z,35.43
2022-11-14T03:11:15.251Z,37.30
2022-11-14T03:13:45.883Z,31.67
2022-11-14T03:16:15.423Z,34.27
2022-11-14T03:18:43.541Z,33.30
2022-11-14T03:21:14.121Z,30.83
2022-11-14T03:23:42.682Z,31.77
2022-11-14T03:26:11.894Z,33.30
2022-11-14T03:28:42.035Z,35.03
2022-11-14T03:31:13.490Z,31.80
2022-11-14T03:33:41.992Z,34.23
2022-11-14T03:36:10.332Z,31.27
2022-11-14T03:38:38.501Z,32.30
2022-11-14T03:41:06.771Z,31.07
2022-11-14T03:43:36.914Z,33.47
2022-11-14T03:46:05.571Z,32.07
2022-11-14T03:48:35.164Z,32.03
2022-11-14T03:51:03.331Z,30.30
2022-11-14T03:53:31.409Z,28.40
2022-11-14T03:55:59.530Z,27.93
2022-11-14T03:58:28.091Z,31.80
2022-11-14T04:00:56.691Z,30.73
2022-11-14T04:03:24.899Z,26.93
2022-11-14T04:05:54.524Z,29.97
2022-11-14T04:08:22.611Z,30.27
2022-11-14T04:10:51.151Z,31.80
2022-11-14T04:13:19.331Z,31.30
2022-11-14T04:15:47.571Z,32.83
2022-11-14T04:18:15.809Z,31.37
2022-11-14T04:20:43.964Z,31.93
2022-11-14T04:23:13.541Z,33.23
2022-11-14T04:25:41.680Z,30.47
2022-11-14T04:28:09.924Z,31.87
2022-11-14T04:30:38.029Z,29.83
2022-11-14T04:33:07.352Z,28.30
2022-11-14T04:35:35.482Z,31.73
2022-11-14T04:38:03.944Z,28.17
2022-11-14T04:40:33.469Z,27.73
2022-11-14T04:43:01.800Z,31.37
2022-11-14T04:45:30.262Z,31.33
2022-11-14T04:47:58.392Z,31.27
2022-11-14T04:50:26.533Z,30.07
2022-11-14T04:52:54.942Z,30.20
2022-11-14T04:55:23.138Z,27.53
2022-11-14T04:57:57.165Z,29.27
2022-11-14T05:00:26.094Z,26.40
2022-11-14T05:02:54.263Z,25.60
2022-11-14T05:05:22.353Z,26.53
2022-11-14T05:07:50.442Z,27.87
2022-11-14T05:10:18.785Z,25.33
2022-11-14T05:12:46.911Z,25.20
2022-11-14T05:15:16.509Z,27.00
2022-11-14T05:17:44.775Z,30.63
2022-11-14T05:20:14.250Z,25.70
2022-11-14T05:22:42.397Z,26.07
2022-11-14T05:25:11.314Z,29.83
2022-11-14T05:27:39.492Z,25.77
2022-11-14T05:30:08.891Z,30.60
2022-11-14T05:32:38.424Z,28.43
2022-11-14T05:35:08.552Z,30.17
2022-11-14T05:37:36.823Z,30.47
2022-11-14T05:40:05.750Z,30.83
2022-11-14T05:42:33.882Z,28.47
2022-11-14T05:45:02.211Z,28.87
2022-11-14T05:47:30.484Z,31.83
2022-11-14T05:50:00.070Z,30.27
2022-11-14T05:52:28.162Z,35.77
2022-11-14T05:54:56.350Z,31.97
2022-11-14T05:57:24.584Z,26.83
2022-11-14T05:59:52.684Z,31.97
2022-11-14T06:02:20.989Z,30.77
2022-11-14T06:04:49.191Z,32.53
2022-11-14T06:07:20.564Z,31.00
2022-11-14T06:09:48.840Z,34.57
2022-11-14T06:12:17.193Z,32.70
2022-11-14T06:14:45.352Z,38.80
2022-11-14T06:17:13.506Z,30.17
2022-11-14T06:19:41.789Z,32.90
2022-11-14T06:22:10.948Z,32.80
2022-11-14T06:24:40.470Z,31.50
2022-11-14T06:27:08.632Z,35.00
2022-11-14T06:29:36.756Z,27.70
2022-11-14T06:32:05.050Z,31.33
2022-11-14T06:34:33.144Z,33.40
2022-11-14T06:37:01.372Z,37.40
2022-11-14T06:39:29.550Z,36.00
2022-11-14T06:41:59.073Z,34.23
2022-11-14T06:44:30.662Z,32.97
2022-11-14T06:46:59.371Z,31.20
2022-11-14T06:49:28.026Z,34.83
2022-11-14T06:51:56.482Z,35.30
2022-11-14T06:54:24.770Z,37.10
2022-11-14T06:56:52.873Z,35.37
2022-11-14T06:59:22.462Z,37.17
2022-11-14T07:01:50.626Z,35.30
2022-11-14T07:04:18.991Z,33.30
2022-11-14T07:06:47.277Z,33.80
2022-11-14T07:09:15.607Z,34.17
2022-11-14T07:11:46.272Z,34.77
2022-11-14T07:14:14.586Z,36.17
2022-11-14T07:16:44.125Z,39.40
2022-11-14T07:19:12.732Z,37.50
2022-11-14T07:21:41.123Z,35.23
2022-11-14T07:24:09.511Z,35.17
2022-11-14T07:26:37.715Z,34.87
2022-11-14T07:29:05.885Z,37.90
2022-11-14T07:31:34.022Z,36.03
2022-11-14T07:34:03.482Z,38.20
2022-11-14T07:36:31.597Z,43.17
2022-11-14T07:38:59.785Z,38.57
2022-11-14T07:41:27.942Z,41.83
2022-11-14T07:43:56.103Z,48.43
2022-11-14T07:46:24.561Z,40.00
2022-11-14T07:48:52.715Z,36.57
2022-11-14T07:51:25.199Z,37.50
2022-11-14T07:53:53.782Z,35.53
2022-11-14T07:56:22.403Z,34.63
2022-11-14T07:58:50.572Z,31.23
2022-11-14T08:01:18.799Z,35.63
2022-11-14T08:03:47.027Z,32.87
2022-11-14T08:06:17.132Z,30.83
2022-11-14T08:08:46.683Z,32.37
2022-11-14T08:11:23.066Z,32.47
2022-11-14T08:14:02.575Z,34.93
2022-11-14T08:16:30.782Z,32.77
2022-11-14T08:18:58.932Z,32.77
2022-11-14T08:21:28.052Z,29.03
2022-11-14T08:23:57.630Z,28.53
2022-11-14T08:26:27.942Z,31.20
2022-11-14T08:28:59.668Z,34.67
2022-11-14T08:31:28.415Z,33.67
2022-11-14T08:33:56.814Z,37.10
2022-11-14T08:36:24.974Z,29.77
2022-11-14T08:38:57.498Z,31.90
2022-11-14T08:41:30.743Z,30.80
2022-11-14T08:43:58.840Z,29.17
2022-11-14T08:46:26.992Z,28.73
2022-11-14T08:48:55.165Z,29.07
2022-11-14T08:51:23.342Z,31.33
2022-11-14T08:53:52.933Z,28.20
2022-11-14T08:56:21.186Z,26.30
2022-11-14T08:58:50.671Z,26.53
2022-11-14T09:01:18.902Z,28.00
2022-11-14T09:03:48.038Z,25.93
2022-11-14T09:06:16.251Z,25.00
2022-11-14T09:08:44.434Z,23.97
2022-11-14T09:11:16.639Z,22.83
2022-11-14T09:13:47.183Z,24.87
2022-11-14T09:16:16.672Z,23.40
2022-11-14T09:18:45.851Z,23.70
2022-11-14T09:21:13.945Z,22.40
2022-11-14T09:23:42.113Z,21.43
2022-11-14T09:26:11.712Z,20.47
2022-11-14T09:28:40.052Z,20.33
2022-11-14T09:31:10.232Z,20.47
2022-11-14T09:33:39.974Z,21.97
2022-11-14T09:36:10.792Z,21.30
2022-11-14T09:38:39.086Z,20.67
2022-11-14T09:41:24.954Z,22.47
2022-11-14T09:44:20.945Z,21.40
2022-11-14T09:46:51.101Z,20.70
2022-11-14T09:49:27.685Z,21.27
2022-11-14T09:52:01.672Z,21.03
2022-11-14T09:54:34.265Z,18.93
2022-11-14T09:57:02.547Z,19.77
2022-11-14T09:59:30.942Z,20.07
2022-11-14T10:02:03.289Z,19.43
2022-11-14T10:04:45.775Z,20.17
2022-11-14T10:07:22.629Z,17.70
2022-11-14T10:10:01.072Z,19.33
2022-11-14T10:12:41.005Z,17.63
2022-11-14T10:15:23.003Z,18.43
2022-11-14T10:17:58.762Z,18.43
2022-11-14T10:20:34.461Z,19.37
2022-11-14T10:23:13.974Z,19.23
2022-11-14T10:25:51.012Z,18.37
2022-11-14T10:28:33.169Z,17.63
2022-11-14T10:31:06.772Z,18.67
2022-11-14T10:33:41.143Z,18.27
2022-11-14T10:36:15.090Z,17.43
2022-11-14T10:38:48.383Z,17.30
2022-11-14T10:41:34.757Z,16.53
2022-11-14T10:44:04.932Z,18.23
2022-11-14T10:46:37.074Z,15.13
2022-11-14T10:49:16.261Z,15.37
2022-11-14T10:51:48.341Z,16.07
2022-11-14T10:54:19.355Z,15.07
2022-11-14T10:56:48.844Z,17.00
2022-11-14T10:59:17.375Z,15.93
2022-11-14T11:01:49.233Z,17.13
2022-11-14T11:04:23.698Z,16.13
2022-11-14T11:06:55.154Z,15.40
2022-11-14T11:09:45.427Z,14.47
2022-11-14T11:12:17.597Z,14.57
2022-11-14T11:14:46.195Z,13.93
2022-11-14T11:17:20.865Z,14.17
2022-11-14T11:19:50.114Z,14.83
2022-11-14T11:22:37.578Z,13.50
2022-11-14T11:25:24.943Z,13.07
2022-11-14T11:28:07.133Z,14.03
2022-11-14T11:30:35.382Z,12.63
2022-11-14T11:33:24.782Z,10.27
2022-11-14T11:35:55.455Z,7.97
2022-11-14T11:38:26.966Z,7.03
2022-11-14T11:40:58.110Z,7.10
2022-11-14T11:43:38.986Z,4.90
2022-11-14T11:46:14.725Z,5.40
2022-11-14T11:48:42.993Z,4.67
2022-11-14T11:51:16.223Z,4.97
2022-11-14T11:53:48.724Z,5.40
2022-11-14T11:56:20.880Z,5.57
2022-11-14T11:58:51.003Z,4.67
2022-11-14T12:01:19.942Z,4.70
2022-11-14T12:03:50.655Z,5.23
2022-11-14T12:06:24.934Z,5.30
2022-11-14T12:09:03.536Z,5.70
2022-11-14T12:11:34.021Z,5.27
2022-11-14T12:14:31.933Z,5.00
2022-11-14T12:17:22.432Z,4.90
2022-11-14T12:20:20.652Z,5.03
2022-11-14T12:23:13.124Z,5.70
2022-11-14T12:26:00.852Z,5.73
2022-11-14T12:28:53.711Z,5.73
2022-11-14T12:31:21.982Z,5.10
2022-11-14T12:33:54.552Z,5.00
2022-11-14T12:36:29.560Z,5.77
2022-11-14T12:38:58.172Z,5.43
2022-11-14T12:41:30.444Z,5.17
2022-11-14T12:44:20.763Z,4.97
2022-11-14T12:47:13.661Z,5.17
2022-11-14T12:50:00.592Z,5.37
2022-11-14T12:52:57.280Z,5.40
2022-11-14T12:55:56.082Z,5.23
2022-11-14T12:58:54.580Z,4.90
2022-11-14T13:01:34.816Z,4.83
2022-11-14T13:04:16.827Z,5.10
2022-11-14T13:06:51.954Z,5.27
2022-11-14T13:09:34.030Z,4.57
2022-11-14T13:12:37.752Z,4.77
2022-11-14T13:15:45.917Z,5.40
2022-11-14T13:18:41.601Z,5.47
2022-11-14T13:21:42.315Z,6.10
2022-11-14T13:24:14.137Z,7.17
2022-11-14T13:26:49.111Z,9.53
2022-11-14T13:30:00.327Z,5.87
2022-11-14T13:32:55.611Z,6.87
2022-11-14T13:35:32.323Z,6.23
2022-11-14T13:38:40.273Z,9.63
2022-11-14T13:41:24.416Z,6.47
2022-11-14T13:44:02.093Z,5.63
2022-11-14T13:46:44.082Z,6.40
2022-11-14T13:49:34.443Z,6.60
2022-11-14T13:52:02.808Z,6.47
2022-11-14T13:54:31.350Z,6.23
2022-11-14T13:57:06.149Z,7.03
2022-11-14T14:00:03.113Z,7.13
2022-11-14T14:03:00.753Z,6.57
2022-11-14T14:05:36.256Z,7.03
2022-11-14T14:08:14.631Z,6.67
2022-11-14T14:10:49.212Z,7.70
2022-11-14T14:13:35.261Z,7.00
2022-11-14T14:16:07.311Z,8.17
2022-11-14T14:18:49.166Z,7.73
2022-11-14T14:21:28.231Z,6.70
2022-11-14T14:24:03.142Z,7.20
2022-11-14T14:26:37.310Z,8.03
2022-11-14T14:29:14.922Z,8.50
2022-11-14T14:31:43.952Z,9.37
2022-11-14T14:34:31.242Z,8.30
2022-11-14T14:37:00.752Z,6.57
2022-11-14T14:39:30.540Z,6.77
2022-11-14T14:41:59.902Z,6.77
2022-11-14T14:44:30.012Z,6.57
2022-11-14T14:46:58.292Z,6.27
2022-11-14T14:49:29.712Z,6.33
2022-11-14T14:51:58.849Z,6.07
2022-11-14T14:54:30.166Z,6.63
2022-11-14T14:57:01.383Z,6.67
2022-11-14T14:59:31.525Z,6.23
2022-11-14T15:01:59.692Z,7.70
2022-11-14T15:04:29.243Z,6.63
2022-11-14T15:06:58.547Z,7.80
2022-11-14T15:09:29.939Z,7.03
2022-11-14T15:12:00.161Z,8.43
2022-11-14T15:14:31.482Z,7.50
2022-11-14T15:17:00.215Z,7.57
2022-11-14T15:19:32.817Z,8.90
2022-11-14T15:22:05.652Z,6.30
2022-11-14T15:24:35.364Z,7.13
2022-11-14T15:27:05.886Z,7.43
2022-11-14T15:29:34.166Z,7.50
2022-11-14T15:32:03.556Z,8.23
2022-11-14T15:34:34.121Z,10.20
2022-11-14T15:37:23.981Z,8.93
2022-11-14T15:39:53.792Z,10.60
2022-11-14T15:42:28.206Z,9.33
2022-11-14T15:44:56.522Z,7.97
2022-11-14T15:47:26.664Z,8.83
2022-11-14T15:49:59.821Z,8.60
2022-11-14T15:52:32.436Z,8.93
2022-11-14T15:55:03.792Z,8.33
2022-11-14T15:57:33.300Z,8.03
2022-11-14T16:00:01.578Z,8.53
2022-11-14T16:02:31.173Z,10.10
2022-11-14T16:05:00.653Z,9.07
2022-11-14T16:07:29.752Z,9.33
2022-11-14T16:09:58.640Z,9.10
2022-11-14T16:12:28.313Z,15.23
2022-11-14T16:14:56.485Z,13.17
2022-11-14T16:17:24.742Z,12.53
2022-11-14T16:19:52.957Z,11.20
2022-11-14T16:22:21.143Z,12.27
2022-11-14T16:24:49.372Z,12.10
2022-11-14T16:27:17.487Z,13.27
2022-11-14T16:29:47.204Z,14.13
2022-11-14T16:32:15.397Z,15.00
2022-11-14T16:34:44.060Z,14.13
2022-11-14T16:37:14.236Z,14.20
2022-11-14T16:39:42.369Z,15.30
2022-11-14T16:42:11.736Z,12.83
2022-11-14T16:44:42.930Z,13.63
2022-11-14T16:47:16.582Z,11.70
2022-11-14T16:49:44.772Z,13.67
2022-11-14T16:52:13.292Z,14.97
2022-11-14T16:54:41.400Z,14.13
2022-11-14T16:57:09.589Z,9.30
2022-11-14T16:59:38.337Z,9.30
2022-11-14T17:02:06.488Z,9.53
2022-11-14T17:04:36.193Z,9.03
2022-11-14T17:07:04.573Z,8.90
2022-11-14T17:09:33.130Z,9.60
2022-11-14T17:12:01.273Z,10.10
2022-11-14T17:14:29.464Z,13.90
2022-11-14T17:17:05.121Z,15.60
2022-11-14T17:19:33.294Z,19.93
2022-11-14T17:22:02.873Z,18.27
2022-11-14T17:24:31.639Z,18.53
2022-11-14T17:27:00.076Z,18.17
2022-11-14T17:29:28.352Z,15.70
2022-11-14T17:31:56.583Z,16.47
2022-11-14T17:34:24.693Z,15.60
2022-11-14T17:36:52.796Z,16.23
2022-11-14T17:39:22.733Z,14.30
2022-11-14T17:41:50.972Z,15.90
2022-11-14T17:44:19.134Z,15.13
2022-11-14T17:46:47.963Z,15.27
2022-11-14T17:49:16.263Z,16.57
2022-11-14T17:51:44.443Z,16.40
2022-11-14T17:54:13.035Z,16.80
2022-11-14T17:56:47.407Z,17.27
2022-11-14T17:59:18.595Z,18.07
2022-11-14T18:01:47.226Z,24.93
2022-11-14T18:04:15.452Z,20.67
2022-11-14T18:06:43.745Z,20.83
2022-11-14T18:09:14.373Z,21.43
2022-11-14T18:11:44.381Z,19.47
2022-11-14T18:14:14.506Z,19.03
2022-11-14T18:17:10.530Z,21.60
2022-11-14T18:19:31.944Z,30.73
2022-11-14T18:22:00.106Z,23.60
2022-11-14T18:24:28.272Z,27.13
2022-11-14T18:26:59.298Z,25.00
2022-11-14T18:29:28.600Z,24.17
2022-11-14T18:31:56.789Z,23.03
2022-11-14T18:34:24.873Z,25.80
2022-11-14T18:36:53.126Z,25.03
2022-11-14T18:39:21.224Z,24.20
2022-11-14T18:41:49.432Z,24.50
2022-11-14T18:44:21.313Z,26.10
2022-11-14T18:46:49.442Z,25.17
2022-11-14T18:49:18.033Z,24.90
2022-11-14T18:51:46.232Z,23.63
2022-11-14T18:54:16.321Z,25.00
2022-11-14T18:56:44.557Z,25.97
2022-11-14T18:59:12.932Z,24.33
2022-11-14T19:01:42.488Z,23.13
2022-11-14T19:04:11.742Z,23.87
2022-11-14T19:06:41.876Z,23.50
2022-11-14T19:09:12.017Z,23.40
2022-11-14T19:11:57.711Z,23.23
2022-11-14T19:14:27.114Z,22.60
2022-11-14T19:16:56.633Z,38.93
2022-11-14T19:19:25.002Z,23.50
2022-11-14T19:21:53.322Z,22.87
2022-11-14T19:24:21.422Z,23.27
2022-11-14T19:26:49.543Z,21.60
2022-11-14T19:29:17.681Z,22.97
2022-11-14T19:31:45.910Z,21.53
2022-11-14T19:34:16.222Z,21.63
2022-11-14T19:36:59.263Z,22.17
2022-11-14T19:39:28.492Z,18.97
2022-11-14T19:41:56.592Z,21.50
2022-11-14T19:44:24.752Z,20.20
2022-11-14T19:46:52.902Z,19.93
2022-11-14T19:49:22.483Z,21.97
2022-11-14T19:51:51.267Z,23.37
2022-11-14T19:54:19.365Z,24.47
2022-11-14T19:56:47.470Z,23.57
2022-11-14T19:59:18.976Z,22.67
2022-11-14T20:01:55.910Z,19.97
2022-11-14T20:04:25.532Z,18.60
2022-11-14T20:06:53.721Z,17.17
2022-11-14T20:09:21.932Z,16.37
2022-11-14T20:11:50.052Z,15.60
2022-11-14T20:14:18.295Z,16.60
2022-11-14T20:16:46.986Z,14.60
2022-11-14T20:19:16.269Z,13.97
2022-11-14T20:21:45.774Z,13.43
2022-11-14T20:24:17.814Z,13.90
2022-11-14T20:26:46.143Z,15.57
2022-11-14T20:29:14.332Z,15.97
2022-11-14T20:31:42.504Z,16.10
2022-11-14T20:34:11.926Z,16.20
2022-11-14T20:37:08.778Z,17.17
2022-11-14T20:39:29.531Z,14.03
2022-11-14T20:41:57.863Z,14.87
2022-11-14T20:44:26.056Z,15.17
2022-11-14T20:46:55.592Z,15.17
2022-11-14T20:49:23.742Z,16.53
2022-11-14T20:51:51.880Z,23.47
2022-11-14T20:54:19.992Z,30.47
2022-11-14T20:56:49.620Z,30.93
2022-11-14T20:59:17.803Z,29.77
2022-11-14T21:01:45.944Z,22.37
2022-11-14T21:04:14.153Z,21.37
2022-11-14T21:06:42.321Z,18.80
2022-11-14T21:09:11.240Z,18.03
2022-11-14T21:11:39.812Z,16.63
2022-11-14T21:14:09.417Z,16.30
2022-11-14T21:16:39.980Z,15.40
2022-11-14T21:19:08.485Z,15.77
2022-11-14T21:21:38.033Z,15.20
2022-11-14T21:24:07.174Z,16.47
2022-11-14T21:26:36.152Z,17.97
2022-11-14T21:29:06.211Z,17.30
2022-11-14T21:31:36.895Z,16.20
2022-11-14T21:34:06.782Z,15.73
2022-11-14T21:36:44.990Z,15.63
2022-11-14T21:39:15.718Z,16.93
2022-11-14T21:41:44.667Z,18.17
2022-11-14T21:44:14.766Z,17.03
2022-11-14T21:46:46.413Z,17.30
2022-11-14T21:49:14.577Z,17.97
2022-11-14T21:51:42.773Z,15.40
2022-11-14T21:54:11.234Z,16.87
2022-11-14T21:56:39.522Z,16.93
2022-11-14T21:59:15.116Z,20.00
2022-11-14T22:02:15.848Z,19.87
2022-11-14T22:04:43.964Z,20.43
2022-11-14T22:07:12.120Z,19.20
2022-11-14T22:09:45.170Z,20.87
2022-11-14T22:12:13.732Z,24.10
2022-11-14T22:14:41.882Z,23.80
2022-11-14T22:17:11.362Z,23.03
2022-11-14T22:19:39.566Z,23.53
2022-11-14T22:22:07.682Z,23.20
2022-11-14T22:24:35.780Z,24.30
2022-11-14T22:27:04.120Z,24.13
2022-11-14T22:29:32.262Z,26.20
2022-11-14T22:32:00.351Z,24.30
2022-11-14T22:34:29.891Z,23.30
2022-11-14T22:36:58.006Z,25.40
2022-11-14T22:39:26.083Z,22.23
2022-11-14T22:41:54.255Z,23.27
2022-11-14T22:44:22.463Z,23.37
2022-11-14T22:46:50.602Z,24.00
2022-11-14T22:49:21.266Z,21.40
2022-11-14T22:51:51.054Z,23.10
2022-11-14T22:54:20.911Z,24.73
2022-11-14T22:56:49.062Z,24.80
2022-11-14T22:59:17.263Z,24.63
2022-11-14T23:01:45.389Z,24.90
2022-11-14T23:04:13.606Z,26.53
2022-11-14T23:06:41.772Z,26.47
2022-11-14T23:09:11.432Z,21.90
2022-11-14T23:11:39.610Z,22.67
2022-11-14T23:14:07.745Z,23.63
2022-11-14T23:16:36.102Z,20.33
2022-11-14T23:19:06.104Z,25.87
2022-11-14T23:21:36.096Z,26.00
2022-11-14T23:24:06.753Z,22.97
2022-11-14T23:26:36.341Z,22.33
2022-11-14T23:29:04.877Z,28.03
2022-11-14T23:31:33.015Z,27.40
2022-11-14T23:34:01.199Z,20.67
2022-11-14T23:36:29.272Z,21.57
2022-11-14T23:38:57.600Z,30.40
2022-11-14T23:41:26.844Z,22.50
2022-11-14T23:43:56.381Z,20.27
2022-11-14T23:46:24.591Z,20.33
2022-11-14T23:48:53.541Z,20.17
2022-11-14T23:51:21.851Z,17.83
2022-11-14T23:53:49.973Z,20.80
2022-11-14T23:56:18.092Z,22.03
2022-11-14T23:58:46.222Z,24.33
